Terminal Aerodrome Forecast
Issued by NWS

Home | Current Version | Previous Version | Graphics & Text | Print | Product List | Glossary On
Versions: 1 2 3 4 5 6 7 8 9 10 11 12 13 14 15 16 17 18 19 20 21 22 23 24 25 26 27 28 29 30 31
000
FTUS43 KLOT 250250 AAA
TAFMDW
TAF AMD
KMDW 250250Z 2503/2524 21006KT P6SM SCT040
     FM250500 23006KT P6SM SCT030 BKN040
     FM251100 26008KT P6SM VCSH SCT020 BKN030
     FM251500 31009KT P6SM BKN030
     FM251900 02010G15KT P6SM SCT050=

USA.gov is the U.S. government's official web portal to all federal, state and local government web resources and services.